Latest Coastal Weather Observations for Gold Coast Seaway

IDQ60701

Issued at 6:32 am EST Tuesday 24 October 2017 (issued every 10 minutes, with the page automatically refreshed every 10 minutes)

About coastal observations | Map of coastal stations | Coastal observations for QLD | Marine services | Other Formats
Station Details ID: 040764 Name: GOLD COAST SEAWAY Lat: -27.94 Lon: 153.43 Height: 2.98 m
Data from the previous 72 hours. | See also: Recent months at Gold Coast Seaway
Date/Time
EST
Temp
°C
Wind Pressure Rain since
9am
mm
Weather Cloud Vis
km
Sea
Height
m
Swell
Dir  Spd
kts
Gust
kts
hPa Trend Height
m
Period
s
Dir
24/06:30am 16.5 SSW 5 6 1020.9 - 6.4 - - - - - - -
24/06:00am 15.3 SW 6 7 1020.5 - 6.4 - - - - - - -
24/05:30am 14.4 SW 6 8 1020.0 - 6.4 - - - - - - -
24/05:00am 14.4 WSW 7 9 1019.7 - 6.4 - - - - - - -
24/04:30am 14.7 SW 6 7 1019.5 - 6.4 - - - - - - -
24/04:00am 14.6 SW 6 7 1019.2 - 6.4 - - - - - - -
24/03:30am 14.6 SW 5 7 1018.8 - 6.4 - - - - - - -
24/03:00am 14.8 WSW 5 7 1018.6 - 6.4 - - - - - - -
24/02:30am 14.8 SW 6 8 1018.8 - 6.4 - - - - - - -
24/02:00am 15.0 WSW 6 8 1019.0 - 6.4 - - - - - - -
24/01:30am 15.1 SSW 5 7 1019.1 - 6.4 - - - - - - -
24/01:00am 15.6 SW 5 6 1019.2 - 6.4 - - - - - - -
24/12:30am 15.8 SW 6 7 1019.2 - 6.4 - - - - - - -
24/12:00am 16.4 SSW 5 7 1019.1 - 6.4 - - - - - - -
 
Date/Time
EST
Temp
°C
Wind Pressure Rain since
9am
mm
Weather Cloud Vis
km
Sea
Height
m
Swell
Dir  Spd
kts
Gust
kts
hPa Trend Height
m
Period
s
Dir
23/11:30pm 17.3 SSE 12 16 1019.0 - 6.4 - - - - - - -
23/11:00pm 17.6 SSE 16 19 1019.1 - 6.4 - - - - - - -
23/10:30pm 17.0 SSE 12 15 1019.4 - 6.4 - - - - - - -
23/10:00pm 16.3 SSW 6 8 1019.3 - 6.4 - - - - - - -
23/09:30pm 17.4 S 8 10 1019.1 - 6.4 - - - - - - -
23/09:00pm 18.0 SSE 12 15 1018.6 - 6.4 - - - - - - -
23/08:30pm 17.4 SSE 11 15 1018.0 - 6.4 - - - - - - -
23/08:00pm 17.4 S 8 10 1018.2 - 6.4 - - - - - - -
23/07:30pm 18.1 SSE 12 16 1018.3 - 6.4 - - - - - - -
23/07:00pm 17.6 S 7 9 1017.9 - 6.4 - - - - - - -
23/06:30pm 17.5 S 6 7 1017.5 - 6.4 - - - - - - -
23/06:00pm 18.1 S 7 8 1017.0 - 6.4 - - - - - - -
23/05:30pm 19.0 SSE 5 7 1016.7 - 6.4 - - - - - - -
23/05:00pm 19.8 SSE 7 8 1016.2 - 6.4 - - - - - - -
23/04:30pm 20.4 SE 6 7 1015.9 - 6.4 - - - - - - -
23/04:00pm 19.8 SSE 6 7 1015.7 - 6.4 - - - - - - -
23/03:30pm 20.9 S 8 11 1015.9 - 6.4 - - - - - - -
23/03:00pm 20.4 SSE 8 10 1015.5 - 6.4 - - - - - - -
23/02:30pm 18.6 S 10 14 1015.4 - 6.4 - - - - - - -
23/02:00pm 17.8 SSW 7 9 1015.4 - 6.4 - - - - - - -
23/01:30pm 17.7 S 8 11 1015.4 - 6.4 - - - - - - -
23/01:00pm 17.2 SSE 13 20 1015.9 - 6.4 - - - - - - -
23/12:30pm 16.9 SE 8 11 1016.4 - 6.2 - - - - - - -
23/12:00pm 15.8 S 1 4 1016.7 - 5.0 Rain - - - - - -
23/11:30am 15.5 SW 7 11 1017.0 - 3.6 - - - - - - -
23/11:18am 15.5 W 10 15 1016.9 - 3.0 - - - - - - -
23/11:00am 17.3 W 20 30 1016.9 - 2.2 - - - - - - -
23/10:52am 16.5 WNW 12 29 1016.6 - 1.8 - - - - - - -
23/10:51am 16.7 WNW 10 22 1016.6 - 1.8 - - - - - - -
23/10:30am 18.7 N 9 15 1016.1 - 0.8 - - - - - - -
23/10:00am 21.7 ESE 9 14 1015.8 - 0.0 - - - - - - -
23/09:30am 24.0 ESE 6 7 1016.1 - 0.0 - - - - - - -
23/09:00am 22.4 SE 5 6 1016.0 - 0.0 - - - - - - -
23/08:30am 21.9 S 6 7 1015.9 - 0.0 - - - - - - -
23/08:00am 21.3 SSE 6 8 1015.8 - 0.0 - - - - - - -
23/07:30am 19.4 SSW 7 10 1015.5 - 0.0 - - - - - - -
23/07:00am 18.2 SSW 7 10 1015.2 - 0.0 - - - - - - -
23/06:30am 18.8 S 10 13 1014.9 - 0.0 - - - - - - -
23/06:00am 18.2 SSE 11 14 1014.4 - 0.0 - - - - - - -
23/05:30am 17.1 SSE 10 14 1014.1 - 0.0 - - - - - - -
23/05:00am 16.4 WSW 6 7 1014.0 - 0.0 - - - - - - -
23/04:30am 16.2 SW 6 8 1013.6 - 0.0 - - - - - - -
23/04:00am 16.3 WSW 6 7 1013.4 - 0.0 - - - - - - -
23/03:30am 16.2 SW 6 8 1013.2 - 0.0 - - - - - - -
23/03:00am 16.3 SW 6 8 1013.1 - 0.0 - - - - - - -
23/02:30am 16.6 SW 5 6 1013.1 - 0.0 - - - - - - -
23/02:00am 16.4 SW 6 7 1013.4 - 0.0 - - - - - - -
23/01:30am 16.3 SW 6 7 1013.7 - 0.0 - - - - - - -
23/01:00am 16.6 SSW 6 7 1013.8 - 0.0 - - - - - - -
23/12:30am 16.6 SSW 6 8 1014.0 - 0.0 - - - - - - -
23/12:00am 17.1 SW 6 7 1014.3 - 0.0 - - - - - - -
 
Date/Time
EST
Temp
°C
Wind Pressure Rain since
9am
mm
Weather Cloud Vis
km
Sea
Height
m
Swell
Dir  Spd
kts
Gust
kts
hPa Trend Height
m
Period
s
Dir
22/11:30pm 17.3 SW 6 7 1014.4 - 0.0 - - - - - - -
22/11:00pm 17.3 SSW 6 8 1014.4 - 0.0 - - - - - - -
22/10:30pm 17.5 SW 5 6 1014.3 - 0.0 - - - - - - -
22/10:00pm 17.5 SSW 6 8 1014.5 - 0.0 - - - - - - -
22/09:30pm 17.8 SSW 7 8 1014.3 - 0.0 - - - - - - -
22/09:00pm 18.2 SSW 6 9 1014.3 - 0.0 - - - - - - -
22/08:30pm 18.2 SSW 7 10 1014.0 - 0.0 - - - - - - -
22/08:00pm 18.5 S 8 11 1013.7 - 0.0 - - - - - - -
22/07:30pm 18.8 S 10 13 1013.3 - 0.0 - - - - - - -
22/07:00pm 19.8 SSE 15 17 1012.8 - 0.0 - - - - - - -
22/06:30pm 19.9 SSE 15 18 1012.6 - 0.0 - - - - - - -
22/06:00pm 20.2 SE 16 20 1012.3 - 0.0 - - - - - - -
22/05:30pm 20.4 SE 17 20 1011.8 - 0.0 - - - - - - -
22/05:00pm 21.2 SE 18 21 1011.6 - 0.0 - - - - - - -
22/04:30pm 21.8 SE 18 21 1011.5 - 0.0 - - - - - - -
22/04:00pm 22.2 SE 18 21 1011.3 - 0.0 - - - - - - -
22/03:30pm 22.5 SE 17 21 1011.0 - 0.0 - - - - - - -
22/03:00pm 23.1 SE 19 21 1011.1 - 0.0 - - - - - - -
22/02:30pm 23.4 SE 18 22 1011.1 - 0.0 - - - - - - -
22/02:00pm 23.4 SE 18 21 1011.3 - 0.0 - - - - - - -
22/01:30pm 23.9 SE 17 20 1011.5 - 0.0 - - - - - - -
22/01:00pm 22.2 SE 15 18 1011.6 - 0.0 - - - - - - -
22/12:30pm 21.8 SE 16 18 1012.0 - 0.0 - - - - - - -
22/12:00pm 24.8 SE 15 18 1012.1 - 0.0 - - - - - - -
22/11:30am 24.3 SE 15 17 1012.4 - 0.0 - - - - - - -
22/11:00am 24.1 SE 15 17 1012.3 - 0.0 - - - - - - -
22/10:30am 23.8 SE 13 16 1012.5 - 0.0 - - - - - - -
22/10:00am 23.1 SSE 11 13 1013.0 - 0.0 - - - - - - -
22/09:30am 22.2 SSE 11 14 1013.3 - 0.0 - - - - - - -
22/09:00am 21.5 S 11 15 1013.4 - 6.4 - - - - - - -
22/08:30am 20.4 SSW 9 12 1013.5 - 6.4 - - - - - - -
22/08:00am 19.8 SSW 9 14 1013.4 - 6.4 - - - - - - -
22/07:30am 18.9 S 9 14 1013.3 - 6.4 - - - - - - -
22/07:00am 17.7 SW 6 8 1013.2 - 6.4 - - - - - - -
22/06:30am 16.8 SW 6 9 1012.9 - 6.4 - - - - - - -
22/06:00am 15.8 SSW 7 10 1012.7 - 6.4 - - - - - - -
22/05:30am 14.0 SSW 7 9 1012.5 - 6.4 - - - - - - -
22/05:00am 13.5 SW 5 6 1012.4 - 6.4 - - - - - - -
22/04:30am 13.5 SW 4 6 1012.2 - 6.4 - - - - - - -
22/04:00am 13.7 WSW 3 4 1012.1 - 6.4 - - - - - - -
22/03:30am 14.9 WSW 6 8 1012.1 - 6.4 - - - - - - -
22/03:00am 14.8 SSW 6 8 1012.3 - 6.4 - - - - - - -
22/02:30am 14.6 W 5 7 1012.3 - 6.4 - - - - - - -
22/02:00am 14.8 SW 5 6 1012.5 - 6.4 - - - - - - -
22/01:30am 15.0 WSW 5 6 1012.8 - 6.4 - - - - - - -
22/01:00am 15.4 SW 5 6 1013.1 - 6.4 - - - - - - -
22/12:30am 15.8 WSW 5 7 1013.5 - 6.4 - - - - - - -
22/12:00am 15.8 SSW 8 16 1013.4 - 6.4 - - - - - - -
 
Date/Time
EST
Temp
°C
Wind Pressure Rain since
9am
mm
Weather Cloud Vis
km
Sea
Height
m
Swell
Dir  Spd
kts
Gust
kts
hPa Trend Height
m
Period
s
Dir
21/11:30pm 15.9 SSW 5 8 1013.8 - 6.4 - - - - - - -
21/11:00pm 16.0 SSW 6 8 1013.8 - 6.4 - - - - - - -
21/10:30pm 15.9 SSW 7 11 1013.9 - 6.4 - - - - - - -
21/10:00pm 16.1 SSW 8 13 1014.2 - 6.4 - - - - - - -
21/09:30pm 16.0 SSW 6 9 1014.8 - 6.4 - - - - - - -
21/09:00pm 16.0 SSW 7 10 1015.1 - 6.4 - - - - - - -
21/08:30pm 16.0 WSW 5 7 1015.1 - 6.4 - - - - - - -
21/08:00pm 15.8 SW 5 7 1014.8 - 6.4 - - - - - - -
21/07:30pm 15.9 SW 6 9 1014.6 - 6.4 - - - - - - -
21/07:00pm 15.7 SSW 5 8 1014.1 - 6.4 - - - - - - -
21/06:30pm 15.9 SW 7 9 1014.6 - 6.4 - - - - - - -
21/06:00pm 15.6 S 13 19 1014.4 - 6.4 Recent precip. - - - - - -
21/05:30pm 15.7 S 14 19 1013.7 - 6.0 - - - - - - -
21/05:00pm 16.2 S 8 15 1013.9 - 5.4 - - - - - - -
21/04:30pm 16.4 S 7 11 1013.8 - 5.0 - - - - - - -
21/04:00pm 16.7 S 8 14 1013.8 - 4.8 - - - - - - -
21/03:30pm 16.7 SSW 7 11 1013.8 - 4.6 - - - - - - -
21/03:00pm 16.9 SSW 8 16 1013.8 - 4.4 Rain - - - - - -
21/02:30pm 17.2 S 10 15 1013.7 - 4.0 - - - - - - -
21/02:00pm 17.4 S 12 17 1013.8 - 3.6 - - - - - - -
21/01:30pm 17.5 S 12 19 1013.8 - 3.4 - - - - - - -
21/01:00pm 17.7 S 11 21 1014.1 - 3.4 - - - - - - -
21/12:30pm 17.7 S 10 15 1014.5 - 3.4 - - - - - - -
21/12:00pm 18.0 SSW 7 11 1015.0 - 3.4 Recent precip. - - - - - -
21/11:30am 18.0 SSW 7 13 1015.3 - 3.4 - - - - - - -
21/11:00am 17.9 S 7 8 1015.8 - 3.2 - - - - - - -
21/10:30am 17.7 S 9 15 1016.2 - 3.0 - - - - - - -
21/10:00am 18.3 S 7 10 1016.2 - 2.0 - - - - - - -
21/09:30am 18.3 S 9 12 1016.1 - 0.6 - - - - - - -
21/09:00am 18.5 SSE 8 11 1016.4 - 5.4 Rain - - - - - -
21/08:30am 18.6 S 7 10 1016.4 - 4.4 - - - - - - -
21/08:00am 18.4 SSE 7 9 1016.2 - 3.8 - - - - - - -
21/07:30am 18.2 S 9 12 1016.1 - 1.8 - - - - - - -
21/07:00am 18.5 S 12 17 1016.4 - 0.8 - - - - - - -

Other Formats:

Comma delimited format used in spreadsheet applications
http://www.bom.gov.au/fwo/IDQ60701/IDQ60701.94580.axf

JavaScript Object Notation format (JSON) in row-major order
http://www.bom.gov.au/fwo/IDQ60701/IDQ60701.94580.json